Time;durP1;ratioP1;P1;durP2;ratioP2;P2;SDS_P1;SDS_P2;PMS_P1;PMS_P2;Temp;Humidity;BMP_temperature;BMP_pressure;BME280_temperature;BME280_humidity;BME280_pressure;Samples;Min_cycle;Max_cycle;Signal;HPM_P1;HPM_P2
2023/04/06 00:07:23;;;;;;;1999.90;999.90;;;3.80;99.90;;;;;;6641319;88;20189;-73
2023/04/06 00:17:24;;;;;;;1999.90;999.90;;;3.60;99.90;;;;;;6640756;88;20215;-74
2023/04/06 00:27:25;;;;;;;1999.90;999.90;;;3.50;99.90;;;;;;6637873;88;20222;-74
2023/04/06 00:37:25;;;;;;;1999.90;999.90;;;3.40;99.90;;;;;;6646937;88;20298;-74
2023/04/06 00:47:26;;;;;;;1999.90;999.90;;;3.30;99.90;;;;;;6656757;88;20319;-74
2023/04/06 00:57:27;;;;;;;1999.90;999.90;;;3.30;99.90;;;;;;6637580;88;20211;-74
2023/04/06 01:07:27;;;;;;;1999.90;999.90;;;3.60;99.90;;;;;;6658730;88;20272;-74
2023/04/06 01:17:28;;;;;;;1999.90;999.90;;;3.80;99.90;;;;;;6661923;88;20518;-74
2023/04/06 01:27:29;;;;;;;1999.90;999.90;;;3.70;99.90;;;;;;6651182;88;20224;-74
2023/04/06 01:37:32;;;;;;;1999.90;999.90;;;3.80;99.90;;;;;;6634993;88;20311;-74
2023/04/06 01:47:32;;;;;;;1999.90;999.90;;;3.80;99.90;;;;;;6636885;88;20696;-74
2023/04/06 01:57:33;;;;;;;1999.90;999.90;;;3.70;99.90;;;;;;6635834;88;20236;-74
2023/04/06 02:07:33;;;;;;;1999.90;999.90;;;3.60;99.90;;;;;;6643751;88;20181;-74
2023/04/06 02:18:17;;;;;;;1999.90;999.90;;;3.40;99.90;;;;;;6656950;77;20332;-81
2023/04/06 02:28:17;;;;;;;1999.90;999.90;;;3.30;99.90;;;;;;6653918;88;20248;-81
2023/04/06 02:38:18;;;;;;;1999.90;999.90;;;3.10;99.90;;;;;;6657127;89;20238;-78
2023/04/06 02:48:18;;;;;;;1999.90;999.90;;;3.10;99.90;;;;;;6656705;89;20197;-79
2023/04/06 02:58:19;;;;;;;1999.90;999.90;;;3.10;99.90;;;;;;6657066;89;20610;-80
2023/04/06 03:08:20;;;;;;;1999.90;999.90;;;2.90;99.90;;;;;;6657952;89;20592;-81
2023/04/06 03:18:24;;;;;;;1999.90;999.90;;;2.70;99.90;;;;;;6659361;88;20896;-81
2023/04/06 03:28:25;;;;;;;1999.90;999.90;;;2.60;99.90;;;;;;6661241;88;20193;-79
2023/04/06 03:38:25;;;;;;;1999.90;999.90;;;2.50;99.90;;;;;;6660000;89;20327;-80
2023/04/06 03:48:26;;;;;;;1999.90;999.90;;;2.60;99.90;;;;;;6661851;89;20200;-80
2023/04/06 03:58:26;;;;;;;1999.90;999.90;;;2.60;99.90;;;;;;6662695;88;20536;-79
2023/04/06 04:08:27;;;;;;;1999.90;999.90;;;2.80;99.90;;;;;;6663439;89;20217;-80
2023/04/06 04:18:27;;;;;;;1999.90;999.90;;;2.90;99.90;;;;;;6661798;89;20251;-79
2023/04/06 04:28:28;;;;;;;1999.90;999.90;;;3.10;99.90;;;;;;6660478;89;20237;-79
2023/04/06 04:38:29;;;;;;;1999.90;999.90;;;3.00;99.90;;;;;;6660714;89;20233;-79
2023/04/06 04:48:29;;;;;;;1999.90;999.90;;;2.70;99.90;;;;;;6662616;88;20211;-79
2023/04/06 04:58:30;;;;;;;1999.90;999.90;;;2.70;99.90;;;;;;6659735;89;20224;-79
2023/04/06 05:08:31;;;;;;;1999.90;999.90;;;2.80;99.90;;;;;;6660156;89;20176;-79
2023/04/06 05:18:32;;;;;;;1999.90;999.90;;;2.80;99.90;;;;;;6659425;89;20187;-79
2023/04/06 05:28:32;;;;;;;1999.90;999.90;;;2.80;99.90;;;;;;6660033;89;20193;-79
2023/04/06 05:38:33;;;;;;;1999.90;999.90;;;2.80;99.90;;;;;;6657283;89;20161;-79
2023/04/06 05:48:33;;;;;;;1999.90;999.90;;;2.80;99.90;;;;;;6654299;88;20873;-79
2023/04/06 05:58:34;;;;;;;1999.90;999.90;;;3.00;99.90;;;;;;6657203;88;20213;-77
2023/04/06 06:08:34;;;;;;;1999.90;999.90;;;3.10;99.90;;;;;;6649293;88;20234;-78
2023/04/06 06:18:36;;;;;;;1999.90;999.90;;;3.40;99.90;;;;;;6654922;88;20268;-79
2023/04/06 06:28:37;;;;;;;1999.90;999.90;;;3.70;99.90;;;;;;6650448;88;20681;-79
2023/04/06 06:38:38;;;;;;;1999.90;999.90;;;4.20;99.90;;;;;;6649779;89;20266;-79
2023/04/06 06:48:39;;;;;;;1999.90;999.90;;;4.50;99.90;;;;;;6656691;88;20669;-80
2023/04/06 06:58:39;;;;;;;1999.90;999.90;;;5.00;99.90;;;;;;6652747;88;20292;-80
2023/04/06 07:08:40;;;;;;;1999.90;999.90;;;5.40;99.90;;;;;;6628125;89;20214;-80
2023/04/06 07:18:40;;;;;;;1999.90;999.90;;;5.90;99.90;;;;;;6634743;88;20225;-79
2023/04/06 07:28:41;;;;;;;1999.90;999.90;;;6.50;99.90;;;;;;6635839;89;20320;-79
2023/04/06 07:38:41;;;;;;;1999.90;999.90;;;6.90;99.90;;;;;;6638756;88;20728;-80
2023/04/06 07:48:42;;;;;;;1999.90;999.90;;;7.70;99.90;;;;;;6628918;89;20954;-78
2023/04/06 07:58:42;;;;;;;1999.90;999.90;;;8.00;99.90;;;;;;6645360;88;20214;-78
2023/04/06 08:08:43;;;;;;;1999.90;999.90;;;9.00;99.90;;;;;;6632383;89;20602;-80
2023/04/06 08:18:43;;;;;;;1999.90;999.90;;;9.50;99.50;;;;;;6626555;88;20225;-78
2023/04/06 08:28:44;;;;;;;1999.90;999.90;;;9.40;99.90;;;;;;6630556;88;20222;-78
2023/04/06 08:38:45;;;;;;;1999.90;999.90;;;9.90;99.70;;;;;;6638930;88;20216;-77
2023/04/06 08:48:48;;;;;;;1999.90;999.90;;;11.00;98.30;;;;;;6640740;88;20388;-79
2023/04/06 08:58:50;;;;;;;1999.90;999.90;;;11.20;97.80;;;;;;6645140;88;20264;-78
2023/04/06 09:08:51;;;;;;;1999.90;999.90;;;11.70;97.60;;;;;;6649020;88;20328;-78
2023/04/06 09:18:51;;;;;;;1999.90;999.90;;;12.40;96.70;;;;;;6628548;88;20228;-79
2023/04/06 09:28:54;;;;;;;1999.90;999.90;;;13.90;95.20;;;;;;6642624;88;20323;-78
2023/04/06 09:38:57;;;;;;;1999.90;999.90;;;13.30;94.40;;;;;;6649588;88;20222;-77
2023/04/06 09:48:59;;;;;;;1999.90;999.90;;;12.80;95.10;;;;;;6638208;88;20455;-77
2023/04/06 09:59:05;;;;;;;1999.90;999.90;;;14.20;93.00;;;;;;6637874;88;20280;-78
2023/04/06 10:09:08;;;;;;;1999.90;999.90;;;14.20;92.10;;;;;;6627733;88;20266;-78
2023/04/06 10:19:23;;;;;;;1999.90;999.90;;;14.10;91.60;;;;;;6624590;88;20232;-77
2023/04/06 10:29:24;;;;;;;1999.90;999.90;;;14.30;91.40;;;;;;6633628;88;20335;-78
2023/04/06 10:39:26;;;;;;;1999.90;999.90;;;15.00;89.30;;;;;;6637281;88;20225;-77
2023/04/06 10:49:26;;;;;;;1999.90;999.90;;;14.70;89.30;;;;;;6646605;88;20259;-78
2023/04/06 10:59:28;;;;;;;1999.90;999.90;;;14.30;88.70;;;;;;6637725;88;20232;-78
2023/04/06 11:09:31;;;;;;;1999.90;999.90;;;14.30;87.60;;;;;;6641387;88;20306;-79
2023/04/06 11:19:32;;;;;;;1999.90;999.90;;;15.10;88.20;;;;;;6653539;88;20326;-79
2023/04/06 11:29:35;;;;;;;1999.90;999.90;;;15.30;85.80;;;;;;6643768;88;20226;-78
2023/04/06 11:39:43;;;;;;;1999.90;999.90;;;14.30;87.20;;;;;;6634982;88;20739;-79
2023/04/06 11:49:47;;;;;;;1999.90;999.90;;;14.40;86.90;;;;;;6638796;88;21106;-79
2023/04/06 11:59:48;;;;;;;1999.90;999.90;;;15.20;87.50;;;;;;6629835;88;20770;-79
2023/04/06 12:09:48;;;;;;;1999.90;999.90;;;15.00;87.10;;;;;;6630720;88;20254;-80
2023/04/06 12:19:49;;;;;;;1999.90;999.90;;;15.00;86.00;;;;;;6633301;88;20887;-80
2023/04/06 12:29:50;;;;;;;1999.90;999.90;;;14.90;85.20;;;;;;6638935;88;20258;-79
2023/04/06 12:39:52;;;;;;;1999.90;999.90;;;15.30;85.20;;;;;;6647855;88;20209;-78
2023/04/06 12:49:53;;;;;;;1999.90;999.90;;;14.30;84.10;;;;;;6655659;88;20200;-78
2023/04/06 12:59:54;;;;;;;1999.90;999.90;;;15.00;84.60;;;;;;6652260;88;20701;-79
2023/04/06 13:09:54;;;;;;;1999.90;999.90;;;15.50;84.40;;;;;;6662649;88;20235;-78
2023/04/06 13:19:55;;;;;;;1999.90;999.90;;;14.90;85.80;;;;;;6646876;88;20202;-77
2023/04/06 13:29:56;;;;;;;1999.90;999.90;;;14.10;88.80;;;;;;6648332;88;20229;-77
2023/04/06 13:39:56;;;;;;;1999.90;999.90;;;13.60;88.50;;;;;;6637389;88;20536;-76
2023/04/06 13:49:57;;;;;;;1999.90;999.90;;;12.90;90.70;;;;;;6652483;88;20184;-77
2023/04/06 13:59:57;;;;;;;1999.90;999.90;;;12.40;92.00;;;;;;6638465;88;20230;-77
2023/04/06 14:09:58;;;;;;;1999.90;999.90;;;12.30;93.00;;;;;;6644381;88;20607;-77
2023/04/06 14:19:58;;;;;;;1999.90;999.90;;;12.40;93.80;;;;;;6641831;88;20285;-76
2023/04/06 14:29:59;;;;;;;1999.90;999.90;;;12.40;94.60;;;;;;6644327;88;20550;-77
2023/04/06 14:40:00;;;;;;;1999.90;999.90;;;12.40;95.10;;;;;;6673992;88;20236;-76
2023/04/06 14:50:00;;;;;;;1999.90;999.90;;;11.50;99.20;;;;;;6657302;88;20311;-76
2023/04/06 15:00:01;;;;;;;1999.90;999.90;;;11.20;99.60;;;;;;6648253;88;20178;-77
2023/04/06 15:10:01;;;;;;;1999.90;999.90;;;10.70;99.90;;;;;;6648566;88;20193;-77
2023/04/06 15:20:02;;;;;;;1999.90;999.90;;;10.80;99.90;;;;;;6652529;88;20205;-76
2023/04/06 15:30:03;;;;;;;1999.90;999.90;;;10.80;99.90;;;;;;6655131;88;20201;-77
2023/04/06 15:40:06;;;;;;;1999.90;999.90;;;10.50;99.90;;;;;;6658694;88;20201;-77
2023/04/06 15:50:07;;;;;;;1999.90;999.90;;;10.30;99.90;;;;;;6640822;88;20209;-76
2023/04/06 16:00:09;;;;;;;1999.90;999.90;;;10.10;99.90;;;;;;6661741;88;20328;-76
2023/04/06 16:10:10;;;;;;;1999.90;999.90;;;9.50;99.90;;;;;;6678187;88;20233;-77
2023/04/06 16:20:11;;;;;;;1999.90;999.90;;;9.10;99.90;;;;;;6677460;88;20308;-77
2023/04/06 16:30:12;;;;;;;1999.90;999.90;;;8.90;99.90;;;;;;6666253;88;20209;-77
2023/04/06 16:40:13;;;;;;;1999.90;999.90;;;8.60;99.90;;;;;;6652639;88;20185;-77
2023/04/06 16:50:14;;;;;;;1999.90;999.90;;;8.50;99.90;;;;;;6660510;88;20202;-78
2023/04/06 17:00:15;;;;;;;1999.90;999.90;;;8.20;99.90;;;;;;6645809;88;20209;-78
2023/04/06 17:10:16;;;;;;;1999.90;999.90;;;8.10;99.90;;;;;;6675970;88;20193;-78
2023/04/06 17:20:17;;;;;;;1999.90;999.90;;;7.80;99.90;;;;;;6677184;88;20196;-77
2023/04/06 17:30:18;;;;;;;1999.90;999.90;;;7.70;99.90;;;;;;6636501;88;20744;-77
2023/04/06 17:40:18;;;;;;;1999.90;999.90;;;7.60;99.90;;;;;;6638693;88;20371;-77
2023/04/06 17:50:19;;;;;;;1999.90;999.90;;;7.60;99.90;;;;;;6650846;88;20230;-77
2023/04/06 18:00:23;;;;;;;1999.90;999.90;;;7.50;99.90;;;;;;6639008;88;20657;-77
2023/04/06 18:10:24;;;;;;;1999.90;999.90;;;7.50;99.90;;;;;;6681456;88;20503;-77
2023/04/06 18:20:25;;;;;;;1999.90;999.90;;;7.40;99.90;;;;;;6656341;88;20189;-76
2023/04/06 18:30:25;;;;;;;1999.90;999.90;;;7.40;99.90;;;;;;6646203;88;20212;-77
2023/04/06 18:40:37;;;;;;;1999.90;999.90;;;7.40;99.90;;;;;;6660328;88;20203;-76
2023/04/06 18:50:37;;;;;;;1999.90;999.90;;;7.50;99.90;;;;;;6659404;88;20247;-77
2023/04/06 19:00:41;;;;;;;1999.90;999.90;;;7.30;99.90;;;;;;6696285;88;20206;-76
2023/04/06 19:10:41;;;;;;;1999.90;999.90;;;7.40;99.90;;;;;;6719907;88;20203;-76
2023/04/06 19:20:42;;;;;;;1999.90;999.90;;;7.30;99.90;;;;;;6658766;88;20653;-76
2023/04/06 19:30:42;;;;;;;1999.90;999.90;;;7.30;99.90;;;;;;6716653;88;20205;-77
2023/04/06 19:40:43;;;;;;;1999.90;999.90;;;7.30;99.90;;;;;;6726294;88;20340;-76
2023/04/06 19:50:44;;;;;;;1999.90;999.90;;;7.30;99.90;;;;;;6720278;88;20388;-75
2023/04/06 20:00:45;;;;;;;1999.90;999.90;;;7.30;99.90;;;;;;6652880;88;20689;-76
2023/04/06 20:10:45;;;;;;;1999.90;999.90;;;7.20;99.90;;;;;;6628625;89;20580;-77
2023/04/06 20:20:46;;;;;;;1999.90;999.90;;;7.30;99.90;;;;;;6640884;89;20653;-77
2023/04/06 20:30:50;;;;;;;1999.90;999.90;;;7.30;99.90;;;;;;6628837;89;20341;-77
2023/04/06 20:40:51;;;;;;;1999.90;999.90;;;7.40;99.90;;;;;;6673557;88;20628;-78
2023/04/06 20:50:52;;;;;;;1999.90;999.90;;;7.50;99.90;;;;;;6703827;88;20197;-78
2023/04/06 21:00:53;;;;;;;1999.90;999.90;;;7.50;99.90;;;;;;6702156;88;20591;-78
2023/04/06 21:10:53;;;;;;;1999.90;999.90;;;7.60;99.90;;;;;;6615302;89;20251;-78
2023/04/06 21:20:54;;;;;;;1999.90;999.90;;;7.50;99.90;;;;;;6630274;88;20210;-79
2023/04/06 21:30:55;;;;;;;1999.90;999.90;;;7.40;99.90;;;;;;6616229;89;20209;-78
2023/04/06 21:40:55;;;;;;;1999.90;999.90;;;7.40;99.90;;;;;;6669011;88;20198;-77
2023/04/06 21:50:56;;;;;;;1999.90;999.90;;;7.40;99.90;;;;;;6635963;88;20222;-77
2023/04/06 22:00:57;;;;;;;1999.90;999.90;;;7.40;99.90;;;;;;6672761;88;20216;-78
2023/04/06 22:10:58;;;;;;;1999.90;999.90;;;7.40;99.90;;;;;;6652021;88;20195;-77
2023/04/06 22:20:59;;;;;;;1999.90;999.90;;;7.50;99.90;;;;;;6653314;88;20684;-77
2023/04/06 22:31:00;;;;;;;1999.90;999.90;;;7.50;99.90;;;;;;6717743;88;20318;-78
2023/04/06 22:41:00;;;;;;;1999.90;999.90;;;7.50;99.90;;;;;;6679818;88;20468;-76
2023/04/06 22:51:01;;;;;;;1999.90;999.90;;;7.60;99.90;;;;;;6656164;88;20637;-76
2023/04/06 23:01:02;;;;;;;1999.90;999.90;;;7.60;99.90;;;;;;6717666;88;20218;-75
2023/04/06 23:11:02;;;;;;;1999.90;999.90;;;7.70;99.90;;;;;;6630612;88;20230;-77
2023/04/06 23:21:06;;;;;;;1999.90;999.90;;;7.60;99.90;;;;;;6630695;89;20189;-76
2023/04/06 23:31:07;;;;;;;1999.90;999.90;;;7.60;99.90;;;;;;6643124;89;20181;-78
2023/04/06 23:41:07;;;;;;;1999.90;999.90;;;7.50;99.90;;;;;;6686837;88;20219;-78
2023/04/06 23:51:08;;;;;;;1999.90;999.90;;;7.50;99.90;;;;;;6644582;89;20219;-76
